createdAt,value
2018-07-09T00:01:34.469Z,101473.77
2018-07-09T00:04:01.644Z,101480.84
2018-07-09T00:06:28.846Z,101476.98
2018-07-09T00:08:55.941Z,101476.77
2018-07-09T00:11:23.091Z,101477.91
2018-07-09T00:13:50.204Z,101479.35
2018-07-09T00:16:17.337Z,101478.02
2018-07-09T00:18:44.501Z,101475.80
2018-07-09T00:21:11.681Z,101479.55
2018-07-09T00:23:38.807Z,101483.06
2018-07-09T00:26:05.968Z,101479.72
2018-07-09T00:28:33.081Z,101478.16
2018-07-09T00:31:00.208Z,101480.47
2018-07-09T00:33:27.346Z,101477.70
2018-07-09T00:35:54.453Z,101472.27
2018-07-09T00:38:21.559Z,101478.67
2018-07-09T00:40:48.715Z,101474.92
2018-07-09T00:43:15.998Z,101480.78
2018-07-09T00:45:43.195Z,101475.68
2018-07-09T00:48:10.620Z,101476.50
2018-07-09T00:50:37.792Z,101478.36
2018-07-09T00:53:04.960Z,101474.20
2018-07-09T00:55:32.395Z,101476.62
2018-07-09T00:57:59.553Z,101480.90
2018-07-09T01:00:26.644Z,101481.42
2018-07-09T01:02:53.840Z,101475.62
2018-07-09T01:05:21.038Z,101472.78
2018-07-09T01:07:48.215Z,101473.05
2018-07-09T01:10:15.935Z,101468.92
2018-07-09T01:12:43.138Z,101468.29
2018-07-09T01:15:10.268Z,101468.36
2018-07-09T01:17:37.440Z,101471.83
2018-07-09T01:20:04.633Z,101472.29
2018-07-09T01:22:32.007Z,101475.53
2018-07-09T01:24:59.144Z,101478.61
2018-07-09T01:27:26.249Z,101467.28
2018-07-09T01:29:53.786Z,101469.37
2018-07-09T01:32:20.902Z,101464.08
2018-07-09T01:34:48.047Z,101470.86
2018-07-09T01:37:15.232Z,101468.83
2018-07-09T01:39:42.369Z,101463.25
2018-07-09T01:42:09.474Z,101465.73
2018-07-09T01:44:36.618Z,101461.29
2018-07-09T01:47:04.211Z,101463.78
2018-07-09T01:49:31.411Z,101467.20
2018-07-09T01:51:58.536Z,101459.52
2018-07-09T01:54:25.724Z,101454.53
2018-07-09T01:56:52.829Z,101451.25
2018-07-09T01:59:19.932Z,101459.77
2018-07-09T02:01:47.123Z,101457.31
2018-07-09T02:04:14.308Z,101452.92
2018-07-09T02:06:41.800Z,101453.32
2018-07-09T02:09:09.180Z,101452.62
2018-07-09T02:11:36.629Z,101455.70
2018-07-09T02:14:03.791Z,101453.84
2018-07-09T02:16:30.936Z,101453.54
2018-07-09T02:19:02.206Z,101464.72
2018-07-09T02:21:29.344Z,101463.38
2018-07-09T02:23:56.524Z,101458.39
2018-07-09T02:26:23.637Z,101459.36
2018-07-09T02:28:50.763Z,101461.09
2018-07-09T02:31:17.926Z,101470.36
2018-07-09T02:33:45.089Z,101470.70
2018-07-09T02:36:12.203Z,101467.24
2018-07-09T02:38:39.344Z,101462.76
2018-07-09T02:41:06.500Z,101467.63
2018-07-09T02:43:33.585Z,101464.38
2018-07-09T02:46:00.764Z,101464.11
2018-07-09T02:48:27.848Z,101459.72
2018-07-09T02:50:55.075Z,101462.75
2018-07-09T02:53:22.265Z,101462.05
2018-07-09T02:55:49.363Z,101463.73
2018-07-09T02:58:16.475Z,101460.20
2018-07-09T03:00:43.794Z,101463.83
2018-07-09T03:03:10.857Z,101463.27
2018-07-09T03:05:38.078Z,101461.53
2018-07-09T03:08:05.434Z,101467.98
2018-07-09T03:10:32.577Z,101468.28
2018-07-09T03:12:59.760Z,101463.50
2018-07-09T03:15:26.901Z,101470.91
2018-07-09T03:17:53.991Z,101475.05
2018-07-09T03:20:21.075Z,101471.86
2018-07-09T03:22:48.272Z,101474.56
2018-07-09T03:25:15.390Z,101476.71
2018-07-09T03:27:42.540Z,101473.78
2018-07-09T03:30:09.825Z,101486.08
2018-07-09T03:32:36.923Z,101476.61
2018-07-09T03:35:04.085Z,101476.78
2018-07-09T03:37:31.272Z,101472.90
2018-07-09T03:39:58.363Z,101471.05
2018-07-09T03:42:25.481Z,101467.37
2018-07-09T03:44:52.628Z,101469.22
2018-07-09T03:47:19.754Z,101466.05
2018-07-09T03:49:46.855Z,101465.30
2018-07-09T03:52:13.989Z,101463.39
2018-07-09T03:54:41.242Z,101468.57
2018-07-09T03:57:08.817Z,101467.19
2018-07-09T03:59:36.434Z,101468.25
2018-07-09T04:02:03.895Z,101467.44
2018-07-09T04:04:31.882Z,101465.81
2018-07-09T04:06:59.119Z,101466.48
2018-07-09T04:09:26.709Z,101465.46
2018-07-09T04:11:53.816Z,101463.42
2018-07-09T04:14:21.011Z,101457.14
2018-07-09T04:16:48.107Z,101458.41
2018-07-09T04:19:15.212Z,101458.25
2018-07-09T04:21:42.344Z,101453.25
2018-07-09T04:24:09.466Z,101457.81
2018-07-09T04:26:36.557Z,101462.40
2018-07-09T04:29:03.711Z,101459.22
2018-07-09T04:31:30.834Z,101460.55
2018-07-09T04:33:57.937Z,101466.90
2018-07-09T04:36:25.149Z,101468.18
2018-07-09T04:38:52.353Z,101471.35
2018-07-09T04:41:19.454Z,101469.56
2018-07-09T04:43:46.627Z,101458.00
2018-07-09T04:46:13.812Z,101466.76
2018-07-09T04:48:40.916Z,101461.91
2018-07-09T04:51:08.102Z,101458.22
2018-07-09T04:53:35.228Z,101467.11
2018-07-09T04:56:02.303Z,101466.30
2018-07-09T04:58:29.544Z,101465.99
2018-07-09T05:00:56.665Z,101466.86
2018-07-09T05:03:23.796Z,101471.09
2018-07-09T05:05:51.073Z,101467.92
2018-07-09T05:08:18.254Z,101467.81
2018-07-09T05:10:45.578Z,101461.59
2018-07-09T05:13:13.325Z,101462.09
2018-07-09T05:15:40.471Z,101464.37
2018-07-09T05:18:07.632Z,101464.67
2018-07-09T05:20:34.903Z,101457.27
2018-07-09T05:23:02.705Z,101455.91
2018-07-09T05:25:29.800Z,101457.37
2018-07-09T05:27:57.492Z,101459.25
2018-07-09T05:30:24.671Z,101459.83
2018-07-09T05:32:51.874Z,101465.86
2018-07-09T05:35:19.240Z,101463.44
2018-07-09T05:37:46.876Z,101469.23
2018-07-09T05:40:14.899Z,101474.91
2018-07-09T05:42:42.325Z,101466.15
2018-07-09T05:45:09.515Z,101469.85
2018-07-09T05:47:36.663Z,101466.63
2018-07-09T05:50:04.224Z,101466.32
2018-07-09T05:52:31.460Z,101465.58
2018-07-09T05:54:58.834Z,101473.52
2018-07-09T05:57:26.136Z,101469.24
2018-07-09T05:59:53.483Z,101471.84
2018-07-09T06:02:20.764Z,101474.63
2018-07-09T06:04:48.155Z,101472.38
2018-07-09T06:07:15.771Z,101463.45
2018-07-09T06:09:43.892Z,101462.43
2018-07-09T06:12:11.124Z,101457.56
2018-07-09T06:14:38.249Z,101459.23
2018-07-09T06:17:06.459Z,101450.73
2018-07-09T06:19:34.014Z,101448.01
2018-07-09T06:22:01.156Z,101451.72
2018-07-09T06:24:28.312Z,101450.50
2018-07-09T06:26:56.016Z,101442.91
2018-07-09T06:29:23.207Z,101447.84
2018-07-09T06:31:50.730Z,101447.44
2018-07-09T06:34:18.325Z,101451.30
2018-07-09T06:36:46.172Z,101449.78
2018-07-09T06:39:13.833Z,101451.42
2018-07-09T06:41:41.056Z,101452.86
2018-07-09T06:44:08.168Z,101445.29
2018-07-09T06:46:35.399Z,101438.29
2018-07-09T06:49:02.572Z,101432.00
2018-07-09T06:51:29.736Z,101434.67
2018-07-09T06:53:57.189Z,101438.45
2018-07-09T06:56:24.416Z,101444.75
2018-07-09T06:58:51.825Z,101453.94
2018-07-09T07:01:19.207Z,101454.91
2018-07-09T07:03:46.508Z,101444.52
2018-07-09T07:06:14.816Z,101445.97
2018-07-09T07:08:43.154Z,101440.30
2018-07-09T07:11:10.470Z,101448.93
2018-07-09T07:13:37.645Z,101441.55
2018-07-09T07:16:04.872Z,101442.89
2018-07-09T07:18:32.595Z,101455.23
2018-07-09T07:20:59.802Z,101448.78
2018-07-09T07:23:26.854Z,101441.22
2018-07-09T07:25:54.001Z,101444.20
2018-07-09T07:28:21.531Z,101445.95
2018-07-09T07:30:48.804Z,101441.64
2018-07-09T07:33:16.372Z,101447.20
2018-07-09T07:35:44.895Z,101449.20
2018-07-09T07:38:13.183Z,101446.05
2018-07-09T07:40:40.435Z,101442.59
2018-07-09T07:43:07.539Z,101444.88
2018-07-09T07:45:34.873Z,101445.61
2018-07-09T07:48:02.209Z,101449.14
2018-07-09T07:50:29.416Z,101448.31
2018-07-09T07:52:56.449Z,101444.66
2018-07-09T07:55:23.699Z,101451.70
2018-07-09T07:57:51.470Z,101452.59
2018-07-09T08:00:18.862Z,101446.72
2018-07-09T08:02:46.793Z,101447.38
2018-07-09T08:05:14.576Z,101438.22
2018-07-09T08:07:45.625Z,101446.77
2018-07-09T08:10:14.770Z,101436.13
2018-07-09T08:13:27.170Z,101434.47
2018-07-09T08:15:09.468Z,101439.05
2018-07-09T08:17:36.776Z,101434.06
2018-07-09T08:20:04.131Z,101427.69
2018-07-09T08:22:31.250Z,101421.66
2018-07-09T08:24:58.589Z,101427.23
2018-07-09T08:27:25.675Z,101414.57
2018-07-09T08:29:52.796Z,101416.45
2018-07-09T08:32:20.065Z,101415.31
2018-07-09T08:34:47.281Z,101414.97
2018-07-09T08:37:15.045Z,101404.66
2018-07-09T08:39:42.267Z,101413.98
2018-07-09T08:42:10.212Z,101405.12
2018-07-09T08:44:39.172Z,101403.73
2018-07-09T08:47:06.403Z,101409.57
2018-07-09T08:49:33.522Z,101405.38
2018-07-09T08:52:00.716Z,101409.87
2018-07-09T08:54:28.005Z,101409.69
2018-07-09T08:56:55.331Z,101406.63
2018-07-09T08:59:22.435Z,101402.41
2018-07-09T09:01:49.733Z,101399.73
2018-07-09T09:04:17.014Z,101396.34
2018-07-09T09:06:44.844Z,101405.99
2018-07-09T09:09:12.248Z,101400.05
2018-07-09T09:11:40.242Z,101396.53
2018-07-09T09:14:07.350Z,101396.26
2018-07-09T09:16:34.567Z,101394.53
2018-07-09T09:19:01.699Z,101401.11
2018-07-09T09:21:29.915Z,101400.09
2018-07-09T09:23:57.909Z,101401.08
2018-07-09T09:26:25.027Z,101403.80
2018-07-09T09:28:52.423Z,101404.45
2018-07-09T09:31:19.857Z,101397.80
2018-07-09T09:33:47.745Z,101391.16
2018-07-09T09:36:15.056Z,101399.43
2018-07-09T09:38:42.383Z,101396.73
2018-07-09T09:41:09.545Z,101395.74
2018-07-09T09:43:36.624Z,101398.44
2018-07-09T09:46:03.808Z,101386.95
2018-07-09T09:48:30.958Z,101396.19
2018-07-09T09:50:58.059Z,101382.67
2018-07-09T09:53:25.192Z,101386.83
2018-07-09T09:55:52.327Z,101388.33
2018-07-09T09:58:19.610Z,101393.80
2018-07-09T10:00:48.965Z,101400.00
2018-07-09T10:03:16.215Z,101407.71
2018-07-09T10:05:43.857Z,101402.24
2018-07-09T10:08:11.098Z,101395.58
2018-07-09T10:10:38.236Z,101404.25
2018-07-09T10:13:05.517Z,101398.36
2018-07-09T10:15:32.673Z,101393.16
2018-07-09T10:18:02.487Z,101393.79
2018-07-09T10:20:30.034Z,101390.94
2018-07-09T10:22:57.382Z,101384.54
2018-07-09T10:25:24.728Z,101388.39
2018-07-09T10:27:52.272Z,101391.28
2018-07-09T10:30:21.195Z,101403.32
2018-07-09T10:32:48.424Z,101397.04
2018-07-09T10:35:16.102Z,101395.95
2018-07-09T10:37:43.641Z,101391.97
2018-07-09T10:40:10.799Z,101389.34
2018-07-09T10:42:37.967Z,101392.41
2018-07-09T10:45:05.253Z,101391.10
2018-07-09T10:47:32.367Z,101392.78
2018-07-09T10:49:59.507Z,101390.40
2018-07-09T10:52:26.667Z,101394.91
2018-07-09T10:54:53.872Z,101398.92
2018-07-09T10:57:21.328Z,101394.00
2018-07-09T10:59:48.744Z,101384.77
2018-07-09T11:02:16.155Z,101387.94
2018-07-09T11:04:44.542Z,101391.16
2018-07-09T11:07:12.004Z,101391.39
2018-07-09T11:09:39.823Z,101382.15
2018-07-09T11:12:06.892Z,101380.17
2018-07-09T11:14:34.067Z,101372.24
2018-07-09T11:17:01.178Z,101369.84
2018-07-09T11:19:28.320Z,101362.88
2018-07-09T11:21:55.491Z,101363.83
2018-07-09T11:24:22.730Z,101362.96
2018-07-09T11:26:50.067Z,101363.01
2018-07-09T11:29:17.545Z,101347.98
2018-07-09T11:31:44.876Z,101355.19
2018-07-09T11:34:12.709Z,101348.42
2018-07-09T11:36:39.990Z,101337.36
2018-07-09T11:39:07.174Z,101338.30
2018-07-09T11:41:34.292Z,101329.16
2018-07-09T11:44:01.538Z,101348.91
2018-07-09T11:46:28.654Z,101329.16
2018-07-09T11:48:55.780Z,101333.73
2018-07-09T11:51:22.998Z,101326.83
2018-07-09T11:53:50.557Z,101328.00
2018-07-09T11:56:17.898Z,101330.66
2018-07-09T11:58:45.457Z,101325.69
2018-07-09T12:01:12.881Z,101317.91
2018-07-09T12:03:40.034Z,101312.92
2018-07-09T12:06:07.245Z,101309.16
2018-07-09T12:08:34.409Z,101309.03
2018-07-09T12:11:01.535Z,101316.20
2018-07-09T12:13:28.672Z,101312.20
2018-07-09T12:15:56.805Z,101309.58
2018-07-09T12:18:23.944Z,101312.52
2018-07-09T12:20:51.376Z,101304.94
2018-07-09T12:23:18.796Z,101310.68
2018-07-09T12:25:46.258Z,101307.21
2018-07-09T12:28:14.180Z,101303.12
2018-07-09T12:30:41.936Z,101303.98
2018-07-09T12:33:09.120Z,101299.65
2018-07-09T12:35:36.349Z,101299.86
2018-07-09T12:38:03.556Z,101302.55
2018-07-09T12:40:30.701Z,101294.55
2018-07-09T12:42:59.179Z,101296.53
2018-07-09T12:45:26.652Z,101302.48
2018-07-09T12:47:54.154Z,101300.63
2018-07-09T12:50:21.512Z,101309.55
2018-07-09T12:52:59.614Z,101314.70
2018-07-09T12:55:26.824Z,101313.25
2018-07-09T12:57:54.038Z,101311.19
2018-07-09T13:00:21.462Z,101312.81
2018-07-09T13:02:48.753Z,101311.25
2018-07-09T13:05:16.172Z,101302.91
2018-07-09T13:07:43.669Z,101302.28
2018-07-09T13:10:10.827Z,101309.72
2018-07-09T13:12:37.947Z,101304.30
2018-07-09T13:15:05.297Z,101297.30
2018-07-09T13:17:32.788Z,101302.37
2018-07-09T13:20:00.558Z,101306.52
2018-07-09T13:22:27.597Z,101298.11
2018-07-09T13:24:54.776Z,101300.64
2018-07-09T13:27:22.160Z,101294.60
2018-07-09T13:29:50.484Z,101290.42
2018-07-09T13:32:17.867Z,101292.28
2018-07-09T13:34:45.376Z,101292.66
2018-07-09T13:37:12.722Z,101286.69
2018-07-09T13:39:39.936Z,101291.31
2018-07-09T13:42:07.093Z,101277.16
2018-07-09T13:44:34.251Z,101283.61
2018-07-09T13:47:01.537Z,101274.67
2018-07-09T13:49:28.970Z,101276.27
2018-07-09T13:51:56.111Z,101268.98
2018-07-09T13:54:23.320Z,101278.45
2018-07-09T13:56:50.648Z,101262.41
2018-07-09T13:59:18.066Z,101269.51
2018-07-09T14:01:45.585Z,101271.85
2018-07-09T14:04:14.116Z,101268.03
2018-07-09T14:06:43.756Z,101259.38
2018-07-09T14:09:11.153Z,101253.20
2018-07-09T14:11:38.810Z,101259.44
2018-07-09T14:14:06.799Z,101247.29
2018-07-09T14:16:34.079Z,101250.97
2018-07-09T14:19:11.496Z,101242.70
2018-07-09T14:21:39.901Z,101242.15
2018-07-09T14:24:07.557Z,101243.87
2018-07-09T14:26:34.695Z,101243.11
2018-07-09T14:29:02.104Z,101237.14
2018-07-09T14:31:29.245Z,101240.82
2018-07-09T14:33:56.363Z,101236.66
2018-07-09T14:36:24.735Z,101245.48
2018-07-09T14:38:52.236Z,101234.68
2018-07-09T14:41:19.760Z,101233.13
2018-07-09T14:43:47.636Z,101229.80
2018-07-09T14:46:15.498Z,101238.73
2018-07-09T14:48:43.274Z,101230.52
2018-07-09T14:51:10.455Z,101231.50
2018-07-09T14:53:38.487Z,101233.81
2018-07-09T14:56:05.658Z,101220.95
2018-07-09T14:58:32.916Z,101230.00
2018-07-09T15:01:00.062Z,101223.73
2018-07-09T15:03:27.253Z,101223.52
2018-07-09T15:05:54.502Z,101229.17
2018-07-09T15:08:21.837Z,101228.02
2018-07-09T15:10:49.546Z,101219.34
2018-07-09T15:13:17.923Z,101215.98
2018-07-09T15:15:45.797Z,101210.36
2018-07-09T15:18:13.022Z,101215.70
2018-07-09T15:20:41.340Z,101213.03
2018-07-09T15:23:08.429Z,101202.20
2018-07-09T15:25:35.648Z,101207.88
2018-07-09T15:28:02.796Z,101199.13
2018-07-09T15:30:31.183Z,101194.33
2018-07-09T15:32:58.387Z,101192.66
2018-07-09T15:35:25.679Z,101191.02
2018-07-09T15:37:53.114Z,101186.36
2018-07-09T15:40:20.519Z,101181.44
2018-07-09T15:42:50.108Z,101177.13
2018-07-09T15:45:17.961Z,101176.20
2018-07-09T15:47:46.625Z,101166.55
2018-07-09T15:50:15.491Z,101168.72
2018-07-09T15:52:47.406Z,101160.23
2018-07-09T15:55:15.418Z,101160.70
2018-07-09T15:57:42.777Z,101151.27
2018-07-09T16:00:10.093Z,101158.02
2018-07-09T16:02:37.292Z,101157.07
2018-07-09T16:05:04.481Z,101150.97
2018-07-09T16:07:31.620Z,101145.68
2018-07-09T16:09:58.788Z,101146.84
2018-07-09T16:12:25.995Z,101139.68
2018-07-09T16:14:53.534Z,101139.69
2018-07-09T16:17:21.152Z,101140.64
2018-07-09T16:19:48.997Z,101135.45
2018-07-09T16:22:16.809Z,101128.34
2018-07-09T16:24:44.461Z,101131.87
2018-07-09T16:27:11.648Z,101130.74
2018-07-09T16:29:38.879Z,101127.44
2018-07-09T16:32:06.421Z,101125.48
2018-07-09T16:34:33.605Z,101125.27
2018-07-09T16:37:00.744Z,101118.37
2018-07-09T16:39:27.984Z,101121.98
2018-07-09T16:41:55.276Z,101119.82
2018-07-09T16:44:23.835Z,101118.33
2018-07-09T16:46:51.278Z,101115.52
2018-07-09T16:49:19.289Z,101118.48
2018-07-09T16:51:47.097Z,101113.25
2018-07-09T16:54:14.815Z,101105.02
2018-07-09T16:56:42.038Z,101106.22
2018-07-09T16:59:09.165Z,101090.77
2018-07-09T17:01:36.363Z,101097.79
2018-07-09T17:04:03.532Z,101094.37
2018-07-09T17:06:30.649Z,101088.37
2018-07-09T17:08:57.760Z,101084.58
2018-07-09T17:11:25.299Z,101083.11
2018-07-09T17:13:53.079Z,101073.55
2018-07-09T17:16:20.428Z,101074.16
2018-07-09T17:18:48.735Z,101076.38
2018-07-09T17:21:16.154Z,101076.02
2018-07-09T17:23:43.304Z,101080.17
2018-07-09T17:26:10.511Z,101065.48
2018-07-09T17:28:37.630Z,101071.70
2018-07-09T17:31:04.733Z,101068.42
2018-07-09T17:33:34.323Z,101068.13
2018-07-09T17:36:01.452Z,101066.98
2018-07-09T17:38:28.668Z,101077.05
2018-07-09T17:40:55.837Z,101067.42
2018-07-09T17:43:23.245Z,101074.13
2018-07-09T17:45:50.584Z,101069.52
2018-07-09T17:48:18.502Z,101071.19
2018-07-09T17:50:46.031Z,101066.55
2018-07-09T17:53:13.162Z,101067.52
2018-07-09T17:55:40.363Z,101069.80
2018-07-09T17:58:08.513Z,101067.03
2018-07-09T18:00:35.681Z,101072.13
2018-07-09T18:03:05.237Z,101068.01
2018-07-09T18:05:32.349Z,101066.25
2018-07-09T18:08:00.446Z,101077.89
2018-07-09T18:10:27.702Z,101079.89
2018-07-09T18:12:55.093Z,101087.89
2018-07-09T18:15:22.388Z,101086.40
2018-07-09T18:17:49.616Z,101101.99
2018-07-09T18:20:17.883Z,101113.93
2018-07-09T18:22:45.042Z,101122.63
2018-07-09T18:25:12.183Z,101113.68
2018-07-09T18:27:39.492Z,101118.77
2018-07-09T18:30:06.648Z,101124.07
2018-07-09T18:32:33.929Z,101125.70
2018-07-09T18:35:01.433Z,101128.30
2018-07-09T18:37:29.788Z,101131.17
2018-07-09T18:39:57.148Z,101129.27
2018-07-09T18:42:24.860Z,101134.78
2018-07-09T18:44:52.916Z,101132.97
2018-07-09T18:47:20.215Z,101143.24
2018-07-09T18:49:47.337Z,101135.86
2018-07-09T18:52:14.472Z,101145.39
2018-07-09T18:54:41.643Z,101144.14
2018-07-09T18:57:09.744Z,101149.09
2018-07-09T18:59:36.861Z,101149.16
2018-07-09T19:02:04.212Z,101154.90
2018-07-09T19:04:31.364Z,101150.07
2018-07-09T19:07:02.068Z,101154.98
2018-07-09T19:09:31.743Z,101153.97
2018-07-09T19:11:59.896Z,101147.66
2018-07-09T19:14:45.198Z,101153.88
2018-07-09T19:17:52.872Z,101152.16
2018-07-09T19:20:31.566Z,101156.84
2018-07-09T19:22:58.034Z,101154.05
2018-07-09T19:25:24.558Z,101160.19
2018-07-09T19:27:51.475Z,101163.88
2018-07-09T19:30:17.784Z,101159.94
2018-07-09T19:32:44.435Z,101166.27
2018-07-09T19:35:10.913Z,101167.78
2018-07-09T19:37:37.444Z,101167.28
2018-07-09T19:40:03.288Z,101173.36
2018-07-09T19:42:30.277Z,101178.77
2018-07-09T19:44:56.873Z,101177.73
2018-07-09T19:47:24.564Z,101183.23
2018-07-09T19:49:51.393Z,101184.03
2018-07-09T19:52:17.935Z,101189.73
2018-07-09T19:54:44.278Z,101186.14
2018-07-09T19:57:10.550Z,101185.27
2018-07-09T19:59:36.871Z,101183.80
2018-07-09T20:02:03.651Z,101184.98
2018-07-09T20:04:29.904Z,101189.45
2018-07-09T20:06:56.316Z,101185.20
2018-07-09T20:09:28.693Z,101187.33
2018-07-09T20:12:01.566Z,101186.31
2018-07-09T20:14:33.666Z,101185.52
2018-07-09T20:17:05.725Z,101191.80
2018-07-09T20:19:32.116Z,101187.54
2018-07-09T20:21:58.636Z,101190.67
2018-07-09T20:24:25.711Z,101198.59
2018-07-09T20:26:52.056Z,101187.72
2018-07-09T20:29:18.643Z,101187.53
2018-07-09T20:31:46.794Z,101189.59
2018-07-09T20:34:13.763Z,101186.59
2018-07-09T20:36:39.975Z,101192.18
2018-07-09T20:39:06.963Z,101195.22
2018-07-09T20:41:33.742Z,101197.24
2018-07-09T20:44:00.542Z,101190.89
2018-07-09T20:46:26.816Z,101195.47
2018-07-09T20:48:53.127Z,101192.71
2018-07-09T20:51:19.568Z,101200.77
2018-07-09T20:53:46.199Z,101197.09
2018-07-09T20:56:12.510Z,101197.88
2018-07-09T20:58:38.880Z,101191.20
2018-07-09T21:01:05.175Z,101193.95
2018-07-09T21:03:31.320Z,101192.41
2018-07-09T21:05:57.503Z,101201.96
2018-07-09T21:08:23.748Z,101202.89
2018-07-09T21:10:50.037Z,101205.66
2018-07-09T21:13:16.428Z,101206.75
2018-07-09T21:15:42.914Z,101213.67
2018-07-09T21:18:09.184Z,101218.87
2018-07-09T21:20:35.424Z,101214.39
2018-07-09T21:23:01.640Z,101211.59
2018-07-09T21:25:27.783Z,101218.14
2018-07-09T21:27:53.948Z,101215.84
2018-07-09T21:30:20.214Z,101211.44
2018-07-09T21:32:46.450Z,101214.56
2018-07-09T21:35:13.461Z,101217.55
2018-07-09T21:37:39.861Z,101211.09
2018-07-09T21:40:06.048Z,101212.72
2018-07-09T21:42:32.285Z,101212.23
2018-07-09T21:44:58.648Z,101214.67
2018-07-09T21:47:24.946Z,101215.60
2018-07-09T21:49:51.389Z,101213.34
2018-07-09T21:52:17.680Z,101226.11
2018-07-09T21:54:43.847Z,101223.40
2018-07-09T21:57:10.106Z,101229.00
2018-07-09T21:59:36.289Z,101232.89
2018-07-09T22:02:02.427Z,101222.93
2018-07-09T22:04:29.731Z,101221.48
2018-07-09T22:06:56.035Z,101222.93
2018-07-09T22:09:22.359Z,101217.55
2018-07-09T22:11:48.509Z,101224.66
2018-07-09T22:14:14.687Z,101225.80
2018-07-09T22:16:40.825Z,101228.52
2018-07-09T22:19:07.790Z,101230.37
2018-07-09T22:21:34.036Z,101222.40
2018-07-09T22:24:00.570Z,101219.20
2018-07-09T22:26:26.827Z,101214.27
2018-07-09T22:28:53.541Z,101209.87
2018-07-09T22:31:21.765Z,101223.03
2018-07-09T22:33:49.185Z,101219.77
2018-07-09T22:36:16.757Z,101227.51
2018-07-09T22:38:44.265Z,101230.77
2018-07-09T22:41:11.446Z,101221.13
2018-07-09T22:43:50.342Z,101221.38
2018-07-09T22:46:18.851Z,101222.84
2018-07-09T22:48:46.384Z,101223.77
2018-07-09T22:51:13.784Z,101224.69
2018-07-09T22:53:40.840Z,101226.70
2018-07-09T22:56:10.117Z,101215.14
2018-07-09T22:58:38.542Z,101217.91
2018-07-09T23:01:05.676Z,101217.64
2018-07-09T23:03:32.784Z,101215.66
2018-07-09T23:05:59.956Z,101211.20
2018-07-09T23:08:27.051Z,101208.20
2018-07-09T23:11:30.756Z,101205.38
2018-07-09T23:16:10.739Z,101204.92
2018-07-09T23:19:02.215Z,101213.30
2018-07-09T23:21:43.331Z,101210.91
2018-07-09T23:24:09.669Z,101211.92
2018-07-09T23:26:35.812Z,101218.05
2018-07-09T23:29:01.970Z,101220.39
2018-07-09T23:31:28.171Z,101215.86
2018-07-09T23:33:54.357Z,101212.73
2018-07-09T23:36:21.937Z,101217.53
2018-07-09T23:38:48.385Z,101214.42
2018-07-09T23:41:14.677Z,101213.30
2018-07-09T23:43:40.957Z,101214.83
2018-07-09T23:46:07.212Z,101208.65
2018-07-09T23:48:33.365Z,101209.20
2018-07-09T23:50:59.600Z,101200.19
2018-07-09T23:53:25.758Z,101201.71
2018-07-09T23:56:01.379Z,101204.11
2018-07-09T23:59:45.280Z,101208.95
